Argyle, Missouri
Current Conditions -  °F | °C
As of 2:53 PM on Monday 24 Nov 2014 (Local Time) from KVIH Reporting Station
Overcast Overcast  
Wind Chill: 33°   Ceiling: 4700
Heat Index: 41°   Visibility: 10mi
Dew Point: 27°   Wind: 16mph
Humidity: 57%   Direction: 270°W
Pressure: 29.78"   Gusts: NA
Location:  38.29°N, 92.03°W
Report Text: KVIH 242053Z AUTO 27014KT 10SM OVC047 05/M03 A2978 RMK AO2 SLP090 T00501028 51027
Loading
Personal Weather Stations






























Interactive Weather Map New forecast layout! Learn more

10-Day Weather Forecast

Advertisements
Track Severe Weather on mobile